To NAV CANADA Home Page Login to a new session Search on AWWS site Feedback and Comments Disclaimer Vers la page française équivalente Tips FAQ What's new on the site To the Forecasts and Observations / NOTAM section To "File a Flight Plan" website Publications and other links Update of the User's profile FIC Telephone Numbers My Weather Data Folder Route Weather Data Regional Weather Data Local Weather Data To the Forecasts and Observations / NOTAM section
Request Generated 09/26/2017 at 05:32:44 UTC . Weather information available at that time is displayed.


Go to a specific product

Save this request

NOTAM

NOTAM


SIGMET
To the Product Selector

SIGMETS GFACN32

GFACN32 - No SIGMET bulletins in effect



AIRMET
To the Product Selector

AIRMETS GFACN32

GFACN32 - No AIRMET bulletins in effect



PIREP
To the Product Selector

FIR_WINNIPEG (WG)

UACN10 CYQT 260415
WG
UA /OV CYIV /TM 0413 /FLDURD /TP BE20 /SK 011BKN /RM CLOUDS WERE SCT
-BKN


METAR/TAF
To the Product Selector

REGINA INTL/SK    

METAR CYQR 260500Z 16011KT 15SM FEW070 07/04 A3009 RMK AC1 SLP206=
METAR CYQR 260400Z 16011KT 15SM SCT071 08/03 A3009 RMK AC3 SLP207=
METAR CYQR 260300Z 15010G16KT 15SM BKN070 09/02 A3010 RMK AC6 SLP213=

TAF CYQR 252338Z 2600/2624 12012KT P6SM BKN070
BECMG 2601/2603 FEW070
FM260800 12010KT P6SM SCT140 PROB30 2608/2614 1SM BR
FM261400 12008KT P6SM SCT080 BKN180
BECMG 2617/2619 25012KT
FM262200 30010KT P6SM BKN080 OVC160
RMK NXT FCST BY 260600Z=

MOOSE JAW/AIR VICE MARSHAL C.M. MCEWEN/SK    

CYMJ - METAR not available

TAF AMD CYMJ 260000Z 2600/2612 FCST CNCLD DUE END OF FLYING PROGRAM
RMK NXT FCST WILL BE ISSUED AT 261115Z=


RADAR PCPN RATE
To the Product Selector
Pacific Canada      Western Canada     

SATELLITE VISIBLE
To the Product Selector
West Canada      

SATELLITE INFRARED
To the Product Selector
West Canada     

GRAPHICAL FA CLOUDS & WEATHER FORECASTS
To the Product Selector
Graphical FA gfacn32      

GRAPHICAL FA ICING, TURBULENCE & FREEZING LEVEL FORECASTS
To the Product Selector
Graphical FA gfacn32      

FDTEXT Low Level FD. Temperatures are not forecast for the 3,000-foot level.
To the Product Selector
STN YQR - REGINA. SASK for use 3000 6000 9000 12000 18000
FDCN01 CWAO FCST BASED ON 260000 DATA VALID 260600 05-09 1907+02 9900-03 0505-06 0410-17
FDCN02 CWAO FCST BASED ON 260000 DATA VALID 261200 09-18 9900+01 0205-03 0110-06 0111-18
FDCN03 CWAO FCST BASED ON 260000 DATA VALID 270000 18-05 2813+05 3416+00 3219-06 3427-18



Your time UTC time
Weather data provided by Environment Canada and NAV CANADA